createdAt,value
2019-03-01T00:00:31.207Z,99626.84
2019-03-01T00:03:04.391Z,99620.55
2019-03-01T00:06:21.152Z,99625.20
2019-03-01T00:09:53.575Z,99624.56
2019-03-01T00:13:05.214Z,99623.31
2019-03-01T00:16:15.408Z,99620.20
2019-03-01T00:19:39.977Z,99613.78
2019-03-01T00:22:58.168Z,99606.08
2019-03-01T00:26:27.090Z,99600.52
2019-03-01T00:30:16.557Z,99605.72
2019-03-01T00:33:07.124Z,99604.20
2019-03-01T00:36:29.736Z,99601.36
2019-03-01T00:39:32.326Z,99603.56
2019-03-01T00:42:55.429Z,99597.80
2019-03-01T00:45:28.448Z,99597.74
2019-03-01T00:48:01.419Z,99587.80
2019-03-01T00:50:33.982Z,99587.63
2019-03-01T00:53:06.668Z,99590.00
2019-03-01T00:55:40.816Z,99585.53
2019-03-01T00:58:15.205Z,99582.59
2019-03-01T01:00:49.515Z,99579.61
2019-03-01T01:03:22.468Z,99574.31
2019-03-01T01:05:55.416Z,99567.52
2019-03-01T01:08:29.114Z,99566.69
2019-03-01T01:11:03.271Z,99564.48
2019-03-01T01:13:36.712Z,99562.35
2019-03-01T01:16:09.943Z,99560.35
2019-03-01T01:18:42.863Z,99560.51
2019-03-01T01:21:15.315Z,99562.23
2019-03-01T01:23:47.951Z,99557.21
2019-03-01T01:26:22.585Z,99559.13
2019-03-01T01:28:55.705Z,99559.06
2019-03-01T01:31:28.369Z,99550.13
2019-03-01T01:34:01.342Z,99548.09
2019-03-01T01:36:34.608Z,99541.58
2019-03-01T01:39:10.255Z,99536.94
2019-03-01T01:41:43.834Z,99541.03
2019-03-01T01:44:16.298Z,99529.95
2019-03-01T01:47:00.250Z,99529.70
2019-03-01T01:49:32.906Z,99523.55
2019-03-01T01:52:05.970Z,99514.49
2019-03-01T01:54:38.559Z,99515.38
2019-03-01T01:57:11.039Z,99512.34
2019-03-01T01:59:45.581Z,99510.92
2019-03-01T02:02:18.457Z,99514.09
2019-03-01T02:04:52.954Z,99508.83
2019-03-01T02:07:27.151Z,99504.92
2019-03-01T02:09:59.740Z,99510.39
2019-03-01T02:12:32.306Z,99506.84
2019-03-01T02:15:09.748Z,99508.00
2019-03-01T02:17:44.815Z,99506.08
2019-03-01T02:20:18.918Z,99503.84
2019-03-01T02:22:53.114Z,99504.74
2019-03-01T02:25:25.479Z,99494.18
2019-03-01T02:27:58.168Z,99493.89
2019-03-01T02:30:31.783Z,99494.16
2019-03-01T02:33:05.322Z,99492.57
2019-03-01T02:35:37.827Z,99488.47
2019-03-01T02:38:10.785Z,99488.88
2019-03-01T02:40:43.326Z,99490.66
2019-03-01T02:43:15.957Z,99493.14
2019-03-01T02:45:50.605Z,99488.20
2019-03-01T02:48:23.319Z,99490.08
2019-03-01T02:50:55.914Z,99484.59
2019-03-01T02:53:29.095Z,99476.46
2019-03-01T02:56:01.631Z,99474.06
2019-03-01T02:58:34.173Z,99474.16
2019-03-01T03:01:06.981Z,99478.91
2019-03-01T03:03:40.441Z,99474.30
2019-03-01T03:06:28.142Z,99469.69
2019-03-01T03:09:03.195Z,99468.91
2019-03-01T03:11:35.862Z,99466.38
2019-03-01T03:14:08.778Z,99461.70
2019-03-01T03:16:42.212Z,99463.25
2019-03-01T03:19:14.772Z,99456.69
2019-03-01T03:21:47.301Z,99459.13
2019-03-01T03:24:20.480Z,99455.48
2019-03-01T03:26:52.917Z,99458.94
2019-03-01T03:29:25.467Z,99453.65
2019-03-01T03:31:58.500Z,99448.59
2019-03-01T03:34:31.130Z,99456.15
2019-03-01T03:37:03.541Z,99453.56
2019-03-01T03:39:36.328Z,99452.02
2019-03-01T03:42:10.921Z,99452.24
2019-03-01T03:44:43.738Z,99457.02
2019-03-01T03:47:16.322Z,99455.36
2019-03-01T03:49:50.285Z,99454.66
2019-03-01T03:52:22.691Z,99452.39
2019-03-01T03:54:56.002Z,99450.46
2019-03-01T03:57:29.111Z,99452.29
2019-03-01T04:00:01.709Z,99452.95
2019-03-01T04:02:36.504Z,99450.68
2019-03-01T04:05:10.075Z,99451.06
2019-03-01T04:07:43.357Z,99445.80
2019-03-01T04:10:16.104Z,99445.91
2019-03-01T04:12:49.067Z,99441.28
2019-03-01T04:15:21.761Z,99441.73
2019-03-01T04:17:54.379Z,99441.41
2019-03-01T04:20:28.647Z,99444.45
2019-03-01T04:23:01.191Z,99442.67
2019-03-01T04:25:33.785Z,99442.84
2019-03-01T04:28:07.167Z,99439.19
2019-03-01T04:30:39.898Z,99436.73
2019-03-01T04:33:12.614Z,99439.65
2019-03-01T04:35:46.534Z,99436.27
2019-03-01T04:38:20.540Z,99432.84
2019-03-01T04:40:53.106Z,99431.53
2019-03-01T04:43:26.730Z,99431.59
2019-03-01T04:45:59.277Z,99429.50
2019-03-01T04:48:31.674Z,99426.01
2019-03-01T04:51:05.495Z,99426.52
2019-03-01T04:53:38.808Z,99424.84
2019-03-01T04:56:11.418Z,99429.05
2019-03-01T04:58:44.423Z,99424.16
2019-03-01T05:01:17.035Z,99432.61
2019-03-01T05:03:49.588Z,99429.80
2019-03-01T05:06:24.026Z,99425.55
2019-03-01T05:08:56.555Z,99427.16
2019-03-01T05:11:29.010Z,99428.71
2019-03-01T05:14:01.687Z,99432.47
2019-03-01T05:16:34.325Z,99441.69
2019-03-01T05:19:07.651Z,99444.41
2019-03-01T05:21:41.472Z,99447.34
2019-03-01T05:24:14.034Z,99446.14
2019-03-01T05:26:47.292Z,99454.30
2019-03-01T05:29:20.079Z,99451.30
2019-03-01T05:31:53.334Z,99453.41
2019-03-01T05:34:27.494Z,99449.71
2019-03-01T05:37:01.348Z,99452.17
2019-03-01T05:39:34.454Z,99457.53
2019-03-01T05:42:07.092Z,99456.21
2019-03-01T05:44:41.103Z,99461.13
2019-03-01T05:47:15.367Z,99454.20
2019-03-01T05:49:48.655Z,99461.89
2019-03-01T05:52:21.518Z,99460.80
2019-03-01T05:54:54.099Z,99462.38
2019-03-01T05:57:26.687Z,99466.53
2019-03-01T06:00:01.411Z,99464.09
2019-03-01T06:03:13.608Z,99465.58
2019-03-01T06:05:46.238Z,99461.99
2019-03-01T06:09:00.959Z,99469.23
2019-03-01T06:12:09.338Z,99467.81
2019-03-01T06:15:26.475Z,99472.64
2019-03-01T06:18:41.642Z,99474.52
2019-03-01T06:22:16.900Z,99479.18
2019-03-01T06:25:17.226Z,99481.16
2019-03-01T06:28:18.963Z,99482.59
2019-03-01T06:32:01.418Z,99490.29
2019-03-01T06:35:45.502Z,99489.56
2019-03-01T06:39:30.481Z,99493.11
2019-03-01T06:42:53.694Z,99496.05
2019-03-01T06:46:27.024Z,99499.11
2019-03-01T06:49:08.006Z,99495.98
2019-03-01T06:51:40.710Z,99502.06
2019-03-01T06:54:13.181Z,99499.53
2019-03-01T06:56:46.877Z,99502.14
2019-03-01T06:59:21.468Z,99501.94
2019-03-01T07:01:54.328Z,99503.33
2019-03-01T07:04:27.116Z,99504.45
2019-03-01T07:07:02.046Z,99510.36
2019-03-01T07:09:35.942Z,99516.84
2019-03-01T07:12:08.939Z,99521.48
2019-03-01T07:14:41.582Z,99526.73
2019-03-01T07:17:14.595Z,99525.88
2019-03-01T07:19:51.235Z,99523.52
2019-03-01T07:22:23.912Z,99533.03
2019-03-01T07:24:57.091Z,99532.77
2019-03-01T07:27:29.613Z,99536.87
2019-03-01T07:30:12.776Z,99540.54
2019-03-01T07:32:47.001Z,99535.98
2019-03-01T07:35:19.696Z,99543.04
2019-03-01T07:37:54.659Z,99540.77
2019-03-01T07:40:28.401Z,99544.91
2019-03-01T07:43:00.887Z,99553.80
2019-03-01T07:45:33.844Z,99558.26
2019-03-01T07:48:07.288Z,99565.39
2019-03-01T07:50:42.914Z,99562.91
2019-03-01T07:53:18.647Z,99569.33
2019-03-01T07:55:52.169Z,99569.38
2019-03-01T07:58:26.803Z,99570.16
2019-03-01T08:00:59.761Z,99580.88
2019-03-01T08:03:32.968Z,99578.74
2019-03-01T08:06:06.431Z,99585.73
2019-03-01T08:08:40.067Z,99588.78
2019-03-01T08:11:12.824Z,99588.58
2019-03-01T08:13:53.201Z,99599.09
2019-03-01T08:16:26.816Z,99604.42
2019-03-01T08:19:03.291Z,99605.16
2019-03-01T08:21:36.251Z,99613.23
2019-03-01T08:24:10.982Z,99616.17
2019-03-01T08:26:48.733Z,99615.52
2019-03-01T08:29:22.936Z,99613.89
2019-03-01T08:31:57.124Z,99609.95
2019-03-01T08:34:30.567Z,99612.37
2019-03-01T08:37:08.146Z,99629.34
2019-03-01T08:39:43.960Z,99626.27
2019-03-01T08:42:16.647Z,99628.84
2019-03-01T08:44:51.273Z,99637.41
2019-03-01T08:47:25.264Z,99637.97
2019-03-01T08:50:00.118Z,99636.96
2019-03-01T08:52:33.110Z,99646.49
2019-03-01T08:55:08.201Z,99652.30
2019-03-01T08:57:49.301Z,99653.12
2019-03-01T09:00:26.900Z,99656.20
2019-03-01T09:03:11.134Z,99661.05
2019-03-01T09:05:44.686Z,99672.28
2019-03-01T09:08:19.317Z,99676.91
2019-03-01T09:10:52.452Z,99678.69
2019-03-01T09:13:26.751Z,99674.55
2019-03-01T09:16:00.008Z,99687.22
2019-03-01T09:18:36.514Z,99689.05
2019-03-01T09:21:12.334Z,99686.62
2019-03-01T09:23:47.983Z,99689.83
2019-03-01T09:26:26.447Z,99689.03
2019-03-01T09:29:00.655Z,99692.80
2019-03-01T09:31:47.784Z,99701.39
2019-03-01T09:34:22.823Z,99703.52
2019-03-01T09:37:01.613Z,99715.19
2019-03-01T09:39:36.151Z,99727.61
2019-03-01T09:42:15.501Z,99728.41
2019-03-01T09:44:50.034Z,99729.95
2019-03-01T09:47:25.255Z,99742.58
2019-03-01T09:49:59.967Z,99744.54
2019-03-01T09:52:40.004Z,99745.69
2019-03-01T09:55:17.440Z,99746.62
2019-03-01T09:57:53.200Z,99745.27
2019-03-01T10:00:27.768Z,99750.61
2019-03-01T10:03:01.101Z,99751.11
2019-03-01T10:05:34.744Z,99751.17
2019-03-01T10:08:07.826Z,99757.07
2019-03-01T10:10:40.535Z,99761.42
2019-03-01T10:13:13.229Z,99756.23
2019-03-01T10:15:46.359Z,99763.86
2019-03-01T10:18:19.804Z,99762.30
2019-03-01T10:20:53.522Z,99771.22
2019-03-01T10:23:28.751Z,99774.86
2019-03-01T10:26:01.647Z,99779.52
2019-03-01T10:28:35.453Z,99782.05
2019-03-01T10:31:08.492Z,99786.58
2019-03-01T10:33:41.204Z,99795.17
2019-03-01T10:36:19.742Z,99793.14
2019-03-01T10:38:56.032Z,99796.19
2019-03-01T10:41:29.224Z,99805.61
2019-03-01T10:44:03.226Z,99800.61
2019-03-01T10:46:36.795Z,99804.20
2019-03-01T10:49:10.006Z,99812.85
2019-03-01T10:51:42.765Z,99810.25
2019-03-01T10:54:17.696Z,99812.19
2019-03-01T10:56:52.004Z,99813.69
2019-03-01T10:59:25.360Z,99822.05
2019-03-01T11:01:58.878Z,99825.20
2019-03-01T11:04:33.254Z,99827.34
2019-03-01T11:07:06.689Z,99830.27
2019-03-01T11:09:39.371Z,99833.14
2019-03-01T11:12:17.941Z,99835.47
2019-03-01T11:14:51.420Z,99829.95
2019-03-01T11:17:24.854Z,99835.50
2019-03-01T11:19:57.514Z,99839.05
2019-03-01T11:22:30.035Z,99837.72
2019-03-01T11:25:05.991Z,99836.23
2019-03-01T11:27:38.508Z,99839.71
2019-03-01T11:30:31.313Z,99834.36
2019-03-01T11:33:03.889Z,99840.37
2019-03-01T11:35:42.590Z,99842.08
2019-03-01T11:38:19.797Z,99844.16
2019-03-01T11:40:55.814Z,99842.27
2019-03-01T11:43:31.197Z,99846.87
2019-03-01T11:46:04.226Z,99846.70
2019-03-01T11:48:38.170Z,99850.77
2019-03-01T11:51:12.592Z,99860.69
2019-03-01T11:53:51.825Z,99854.30
2019-03-01T11:56:27.274Z,99853.75
2019-03-01T11:59:00.513Z,99851.22
2019-03-01T12:01:34.816Z,99855.30
2019-03-01T12:04:08.644Z,99858.22
2019-03-01T12:06:41.397Z,99861.69
2019-03-01T12:09:14.439Z,99859.27
2019-03-01T12:11:48.579Z,99861.64
2019-03-01T12:14:22.317Z,99861.58
2019-03-01T12:16:57.258Z,99857.79
2019-03-01T12:19:29.812Z,99860.92
2019-03-01T12:22:03.589Z,99864.33
2019-03-01T12:24:36.157Z,99870.29
2019-03-01T12:27:11.756Z,99867.09
2019-03-01T12:29:47.509Z,99873.39
2019-03-01T12:32:23.430Z,99875.53
2019-03-01T12:34:58.149Z,99873.17
2019-03-01T12:37:34.535Z,99873.36
2019-03-01T12:40:11.112Z,99880.81
2019-03-01T12:42:45.194Z,99881.70
2019-03-01T12:45:19.909Z,99879.50
2019-03-01T12:47:53.966Z,99884.13
2019-03-01T12:50:28.234Z,99880.76
2019-03-01T12:53:01.171Z,99883.69
2019-03-01T12:55:33.886Z,99890.56
2019-03-01T12:58:08.126Z,99893.43
2019-03-01T13:00:42.920Z,99903.52
2019-03-01T13:03:18.373Z,99907.13
2019-03-01T13:05:50.996Z,99912.79
2019-03-01T13:08:24.952Z,99912.91
2019-03-01T13:10:58.182Z,99919.91
2019-03-01T13:13:34.744Z,99925.03
2019-03-01T13:16:12.286Z,99934.47
2019-03-01T13:18:47.722Z,99931.42
2019-03-01T13:21:27.052Z,99928.31
2019-03-01T13:24:00.875Z,99920.27
2019-03-01T13:26:33.825Z,99925.92
2019-03-01T13:29:06.400Z,99923.38
2019-03-01T13:31:39.726Z,99935.91
2019-03-01T13:34:14.488Z,99929.45
2019-03-01T13:36:47.096Z,99929.88
2019-03-01T13:39:20.767Z,99940.16
2019-03-01T13:41:56.379Z,99939.88
2019-03-01T13:44:29.500Z,99937.73
2019-03-01T13:47:05.394Z,99943.28
2019-03-01T13:49:42.137Z,99949.66
2019-03-01T13:52:16.734Z,99959.55
2019-03-01T13:54:52.384Z,99956.17
2019-03-01T13:57:25.580Z,99962.34
2019-03-01T13:59:59.257Z,99953.97
2019-03-01T14:02:34.064Z,99954.94
2019-03-01T14:05:08.594Z,99959.44
2019-03-01T14:07:45.382Z,99952.97
2019-03-01T14:10:20.892Z,99959.59
2019-03-01T14:12:58.305Z,99959.86
2019-03-01T14:15:35.064Z,99962.67
2019-03-01T14:18:11.359Z,99970.35
2019-03-01T14:20:47.734Z,99971.63
2019-03-01T14:23:25.011Z,99971.33
2019-03-01T14:26:09.478Z,99967.27
2019-03-01T14:28:46.132Z,99972.66
2019-03-01T14:31:22.326Z,99965.41
2019-03-01T14:33:57.655Z,99970.98
2019-03-01T14:36:33.681Z,99973.51
2019-03-01T14:39:17.822Z,99978.23
2019-03-01T14:41:50.490Z,99975.61
2019-03-01T14:44:27.062Z,99977.36
2019-03-01T14:46:59.970Z,99985.93
2019-03-01T14:49:36.734Z,99985.53
2019-03-01T14:52:13.587Z,99991.31
2019-03-01T14:54:48.740Z,99995.94
2019-03-01T14:57:33.940Z,100000.89
2019-03-01T15:00:41.096Z,100006.22
2019-03-01T15:03:31.825Z,100008.36
2019-03-01T15:06:19.134Z,100019.72
2019-03-01T15:09:00.173Z,100018.73
2019-03-01T15:11:35.032Z,100021.06
2019-03-01T15:14:13.323Z,100016.78
2019-03-01T15:16:47.740Z,100028.05
2019-03-01T15:19:20.283Z,100023.16
2019-03-01T15:21:57.040Z,100027.56
2019-03-01T15:24:33.214Z,100026.55
2019-03-01T15:27:10.586Z,100032.92
2019-03-01T15:29:45.707Z,100033.09
2019-03-01T15:32:19.802Z,100033.75
2019-03-01T15:34:52.711Z,100037.78
2019-03-01T15:37:25.740Z,100042.17
2019-03-01T15:39:58.237Z,100041.55
2019-03-01T15:42:31.020Z,100042.12
2019-03-01T15:45:09.070Z,100041.31
2019-03-01T15:47:45.190Z,100036.97
2019-03-01T15:50:19.152Z,100039.19
2019-03-01T15:52:52.018Z,100047.23
2019-03-01T15:55:25.852Z,100049.77
2019-03-01T15:58:02.526Z,100053.71
2019-03-01T16:00:36.429Z,100061.96
2019-03-01T16:03:14.357Z,100064.20
2019-03-01T16:05:48.133Z,100066.57
2019-03-01T16:08:21.006Z,100067.10
2019-03-01T16:10:53.658Z,100076.39
2019-03-01T16:13:28.394Z,100084.27
2019-03-01T16:16:01.981Z,100075.23
2019-03-01T16:18:40.786Z,100077.16
2019-03-01T16:21:22.084Z,100087.23
2019-03-01T16:23:55.631Z,100094.99
2019-03-01T16:26:29.983Z,100098.13
2019-03-01T16:29:03.940Z,100100.66
2019-03-01T16:31:40.034Z,100098.58
2019-03-01T16:34:17.267Z,100102.08
2019-03-01T16:36:55.171Z,100100.75
2019-03-01T16:39:27.823Z,100111.95
2019-03-01T16:42:01.176Z,100124.44
2019-03-01T16:44:35.747Z,100119.96
2019-03-01T16:47:09.738Z,100124.47
2019-03-01T16:49:43.536Z,100130.97
2019-03-01T16:52:17.150Z,100131.13
2019-03-01T16:54:51.545Z,100133.64
2019-03-01T16:57:26.706Z,100134.53
2019-03-01T17:00:02.953Z,100133.25
2019-03-01T17:02:38.650Z,100137.05
2019-03-01T17:05:16.684Z,100138.56
2019-03-01T17:07:51.491Z,100136.56
2019-03-01T17:10:26.372Z,100141.63
2019-03-01T17:13:03.093Z,100140.25
2019-03-01T17:15:36.977Z,100139.93
2019-03-01T17:18:13.462Z,100139.56
2019-03-01T17:20:46.120Z,100143.02
2019-03-01T17:23:20.026Z,100150.52
2019-03-01T17:25:53.452Z,100155.64
2019-03-01T17:28:27.938Z,100157.66
2019-03-01T17:31:03.527Z,100156.30
2019-03-01T17:33:36.395Z,100156.47
2019-03-01T17:36:09.358Z,100160.06
2019-03-01T17:38:45.995Z,100155.48
2019-03-01T17:41:18.981Z,100155.56
2019-03-01T17:43:53.829Z,100152.81
2019-03-01T17:46:29.839Z,100151.66
2019-03-01T17:49:05.615Z,100150.66
2019-03-01T17:51:38.539Z,100154.77
2019-03-01T17:54:11.868Z,100155.47
2019-03-01T17:56:45.462Z,100160.13
2019-03-01T17:59:20.128Z,100163.46
2019-03-01T18:01:54.736Z,100164.59
2019-03-01T18:04:28.996Z,100161.81
2019-03-01T18:07:03.389Z,100162.30
2019-03-01T18:09:36.554Z,100170.04
2019-03-01T18:12:10.845Z,100180.95
2019-03-01T18:14:45.806Z,100187.13
2019-03-01T18:17:19.620Z,100189.08
2019-03-01T18:19:53.519Z,100198.53
2019-03-01T18:22:31.177Z,100191.61
2019-03-01T18:25:04.984Z,100194.66
2019-03-01T18:27:37.592Z,100189.52
2019-03-01T18:30:19.872Z,100193.05
2019-03-01T18:32:54.644Z,100190.31
2019-03-01T18:35:52.545Z,100193.31
2019-03-01T18:38:32.461Z,100204.88
2019-03-01T18:44:22.358Z,100206.78
2019-03-01T18:47:06.631Z,100210.12
2019-03-01T18:49:39.260Z,100207.89
2019-03-01T18:52:14.498Z,100211.52
2019-03-01T18:54:52.103Z,100206.31
2019-03-01T18:57:27.543Z,100204.88
2019-03-01T19:00:01.286Z,100206.34
2019-03-01T19:02:45.681Z,100209.06
2019-03-01T19:05:21.622Z,100209.76
2019-03-01T19:07:56.164Z,100209.43
2019-03-01T19:10:30.573Z,100214.02
2019-03-01T19:13:12.392Z,100212.89
2019-03-01T19:15:54.412Z,100216.77
2019-03-01T19:18:27.979Z,100220.63
2019-03-01T19:21:07.956Z,100219.91
2019-03-01T19:23:42.178Z,100218.89
2019-03-01T19:26:16.038Z,100224.86
2019-03-01T19:28:51.194Z,100226.09
2019-03-01T19:31:26.823Z,100225.25
2019-03-01T19:34:01.790Z,100222.70
2019-03-01T19:36:38.965Z,100221.91
2019-03-01T19:39:25.861Z,100221.94
2019-03-01T19:42:00.470Z,100216.20
2019-03-01T19:44:37.118Z,100219.76
2019-03-01T19:47:31.241Z,100213.45
2019-03-01T19:50:21.822Z,100217.48
2019-03-01T19:52:59.500Z,100210.14
2019-03-01T19:55:36.198Z,100210.84
2019-03-01T19:58:11.907Z,100212.93
2019-03-01T20:00:49.612Z,100213.01
2019-03-01T20:03:31.806Z,100213.94
2019-03-01T20:06:15.956Z,100217.98
2019-03-01T20:08:50.779Z,100218.34
2019-03-01T20:11:27.469Z,100229.98
2019-03-01T20:14:02.143Z,100229.22
2019-03-01T20:16:35.442Z,100231.74
2019-03-01T20:19:08.950Z,100225.12
2019-03-01T20:21:44.160Z,100232.21
2019-03-01T20:24:21.951Z,100225.72
2019-03-01T20:26:56.592Z,100223.52
2019-03-01T20:29:29.777Z,100228.98
2019-03-01T20:32:16.846Z,100219.09
2019-03-01T20:34:50.222Z,100229.20
2019-03-01T20:37:24.667Z,100226.95
2019-03-01T20:40:26.904Z,100224.22
2019-03-01T20:43:14.773Z,100219.34
2019-03-01T20:45:50.730Z,100218.09
2019-03-01T20:48:25.584Z,100228.05
2019-03-01T20:51:06.241Z,100222.51
2019-03-01T20:53:40.590Z,100226.14
2019-03-01T20:56:17.209Z,100221.56
2019-03-01T20:59:07.531Z,100223.52
2019-03-01T21:01:50.834Z,100221.92
2019-03-01T21:04:29.418Z,100224.61
2019-03-01T21:07:15.646Z,100220.35
2019-03-01T21:09:51.400Z,100221.83
2019-03-01T21:12:27.324Z,100226.30
2019-03-01T21:15:12.393Z,100232.80
2019-03-01T21:17:45.236Z,100230.61
2019-03-01T21:20:20.887Z,100235.23
2019-03-01T21:22:54.349Z,100236.61
2019-03-01T21:25:27.061Z,100231.06
2019-03-01T21:28:01.949Z,100231.52
2019-03-01T21:30:35.286Z,100236.00
2019-03-01T21:33:09.736Z,100238.34
2019-03-01T21:35:47.869Z,100237.72
2019-03-01T21:38:24.732Z,100235.14
2019-03-01T21:40:57.320Z,100229.93
2019-03-01T21:43:37.561Z,100231.45
2019-03-01T21:46:10.193Z,100237.16
2019-03-01T21:48:42.755Z,100230.89
2019-03-01T21:51:18.551Z,100228.20
2019-03-01T21:53:55.769Z,100227.25
2019-03-01T21:56:32.172Z,100229.82
2019-03-01T21:59:06.643Z,100231.39
2019-03-01T22:01:41.482Z,100234.09
2019-03-01T22:04:15.543Z,100233.33
2019-03-01T22:06:50.184Z,100231.20
2019-03-01T22:13:10.598Z,100238.68
2019-03-01T22:15:45.349Z,100232.64
2019-03-01T22:18:20.440Z,100238.64
2019-03-01T22:20:57.473Z,100236.50
2019-03-01T22:23:31.312Z,100233.34
2019-03-01T22:26:05.934Z,100234.98
2019-03-01T22:28:40.224Z,100232.11
2019-03-01T22:31:13.443Z,100236.09
2019-03-01T22:34:01.190Z,100236.91
2019-03-01T22:36:34.377Z,100234.66
2019-03-01T22:39:08.594Z,100242.66
2019-03-01T22:41:44.298Z,100242.69
2019-03-01T22:44:16.920Z,100241.00
2019-03-01T22:46:50.197Z,100242.50
2019-03-01T22:49:24.035Z,100234.30
2019-03-01T22:52:05.354Z,100237.53
2019-03-01T22:54:39.110Z,100231.67
2019-03-01T22:57:12.994Z,100230.28
2019-03-01T22:59:47.275Z,100230.91
2019-03-01T23:02:26.326Z,100233.45
2019-03-01T23:05:00.526Z,100229.55
2019-03-01T23:07:37.156Z,100231.23
2019-03-01T23:10:18.478Z,100225.12
2019-03-01T23:12:54.700Z,100224.72
2019-03-01T23:15:28.155Z,100219.42
2019-03-01T23:18:05.676Z,100225.25
2019-03-01T23:20:41.090Z,100222.41
2019-03-01T23:23:17.850Z,100220.23
2019-03-01T23:25:58.642Z,100218.15
2019-03-01T23:28:34.013Z,100212.25
2019-03-01T23:31:17.219Z,100216.39
2019-03-01T23:33:51.451Z,100204.91
2019-03-01T23:36:24.920Z,100207.25
2019-03-01T23:39:01.505Z,100202.63
2019-03-01T23:41:34.135Z,100204.59
2019-03-01T23:44:07.816Z,100198.98
2019-03-01T23:46:40.416Z,100201.59
2019-03-01T23:49:13.082Z,100197.72
2019-03-01T23:51:47.888Z,100199.09
2019-03-01T23:54:20.608Z,100197.30
2019-03-01T23:56:53.294Z,100197.88
2019-03-01T23:59:26.679Z,100196.28
